createdAt,value
2018-03-29T00:01:27.230Z,72.04
2018-03-29T00:03:58.569Z,71.75
2018-03-29T00:06:30.065Z,72.07
2018-03-29T00:09:01.669Z,72.03
2018-03-29T00:11:33.385Z,71.80
2018-03-29T00:14:04.810Z,71.87
2018-03-29T00:16:36.868Z,71.67
2018-03-29T00:19:15.531Z,71.86
2018-03-29T00:21:49.420Z,71.84
2018-03-29T00:24:21.463Z,72.46
2018-03-29T00:26:53.140Z,71.86
2018-03-29T00:29:24.302Z,72.06
2018-03-29T00:31:56.020Z,71.90
2018-03-29T00:34:28.410Z,71.74
2018-03-29T00:36:59.682Z,71.65
2018-03-29T00:39:31.412Z,71.55
2018-03-29T00:42:03.016Z,71.66
2018-03-29T00:44:36.606Z,71.29
2018-03-29T00:47:15.548Z,70.98
2018-03-29T00:49:46.782Z,71.46
2018-03-29T00:52:18.280Z,71.47
2018-03-29T00:54:49.954Z,71.27
2018-03-29T00:57:21.507Z,71.25
2018-03-29T00:59:52.818Z,71.23
2018-03-29T01:02:24.875Z,70.79
2018-03-29T01:04:56.164Z,70.70
2018-03-29T01:07:29.100Z,71.38
2018-03-29T01:10:00.762Z,70.70
2018-03-29T01:12:33.415Z,70.78
2018-03-29T01:15:07.788Z,70.60
2018-03-29T01:17:44.970Z,70.62
2018-03-29T01:20:16.868Z,70.33
2018-03-29T01:22:48.588Z,69.93
2018-03-29T01:25:40.586Z,69.01
2018-03-29T01:28:14.407Z,69.54
2018-03-29T01:30:47.317Z,69.49
2018-03-29T01:33:18.605Z,68.84
2018-03-29T01:35:50.036Z,69.11
2018-03-29T01:38:21.564Z,69.46
2018-03-29T01:40:53.497Z,69.47
2018-03-29T01:43:26.461Z,69.59
2018-03-29T01:45:59.391Z,69.92
2018-03-29T01:48:31.020Z,70.17
2018-03-29T01:51:04.527Z,70.13
2018-03-29T01:53:36.314Z,69.96
2018-03-29T01:56:07.419Z,69.48
2018-03-29T01:58:39.175Z,69.80
2018-03-29T02:01:11.566Z,69.62
2018-03-29T02:03:42.702Z,69.20
2018-03-29T02:06:15.764Z,69.34
2018-03-29T02:08:47.635Z,69.19
2018-03-29T02:11:18.997Z,69.17
2018-03-29T02:13:50.475Z,68.99
2018-03-29T02:16:22.553Z,68.77
2018-03-29T02:18:54.194Z,68.86
2018-03-29T02:21:26.755Z,68.79
2018-03-29T02:23:58.174Z,68.39
2018-03-29T02:26:28.956Z,68.48
2018-03-29T02:29:00.755Z,68.64
2018-03-29T02:31:32.324Z,68.25
2018-03-29T02:34:03.507Z,68.39
2018-03-29T02:36:35.916Z,68.38
2018-03-29T02:39:08.322Z,68.44
2018-03-29T02:41:40.923Z,68.89
2018-03-29T02:44:11.858Z,68.54
2018-03-29T02:46:44.014Z,68.41
2018-03-29T02:49:15.394Z,68.32
2018-03-29T02:51:46.442Z,68.29
2018-03-29T02:54:18.013Z,68.11
2018-03-29T02:56:49.213Z,68.35
2018-03-29T02:59:20.087Z,67.96
2018-03-29T03:01:51.134Z,68.32
2018-03-29T03:04:22.306Z,68.52
2018-03-29T03:06:54.074Z,68.07
2018-03-29T03:09:24.628Z,67.97
2018-03-29T03:11:55.451Z,67.44
2018-03-29T03:14:27.072Z,67.53
2018-03-29T03:16:57.857Z,67.31
2018-03-29T03:19:28.672Z,67.36
2018-03-29T03:21:59.799Z,67.19
2018-03-29T03:24:30.780Z,67.23
2018-03-29T03:27:02.073Z,66.48
2018-03-29T03:29:33.098Z,66.33
2018-03-29T03:32:05.169Z,66.47
2018-03-29T03:34:36.961Z,66.20
2018-03-29T03:37:08.546Z,65.97
2018-03-29T03:42:28.569Z,65.88
2018-03-29T03:45:00.509Z,65.70
2018-03-29T03:47:34.168Z,65.93
2018-03-29T03:50:05.840Z,65.86
2018-03-29T03:52:37.606Z,65.37
2018-03-29T03:55:09.195Z,65.97
2018-03-29T03:57:40.593Z,65.87
2018-03-29T04:00:14.251Z,65.45
2018-03-29T04:02:46.272Z,65.68
2018-03-29T04:05:17.714Z,65.63
2018-03-29T04:07:48.578Z,65.47
2018-03-29T04:10:20.761Z,64.95
2018-03-29T04:12:51.857Z,65.03
2018-03-29T04:15:23.906Z,64.99
2018-03-29T04:17:54.828Z,65.14
2018-03-29T04:20:26.504Z,64.78
2018-03-29T04:22:57.842Z,64.50
2018-03-29T04:25:29.950Z,64.55
2018-03-29T04:28:02.678Z,64.29
2018-03-29T04:30:34.023Z,64.49
2018-03-29T04:33:04.765Z,63.94
2018-03-29T04:35:36.344Z,63.59
2018-03-29T04:38:08.319Z,64.08
2018-03-29T04:40:44.662Z,64.02
2018-03-29T04:43:15.929Z,64.21
2018-03-29T04:45:48.851Z,64.13
2018-03-29T04:48:21.055Z,64.06
2018-03-29T04:50:52.251Z,64.11
2018-03-29T04:53:23.699Z,63.90
2018-03-29T04:55:54.487Z,64.21
2018-03-29T04:58:26.025Z,64.39
2018-03-29T05:00:57.758Z,63.90
2018-03-29T05:03:34.195Z,63.86
2018-03-29T05:06:05.885Z,63.93
2018-03-29T05:08:37.471Z,63.42
2018-03-29T05:11:09.259Z,63.30
2018-03-29T05:13:40.826Z,62.86
2018-03-29T05:16:12.658Z,63.53
2018-03-29T05:18:43.927Z,63.60
2018-03-29T05:21:15.372Z,63.48
2018-03-29T05:23:48.242Z,63.08
2018-03-29T05:26:20.979Z,63.27
2018-03-29T05:28:53.037Z,63.48
2018-03-29T05:31:25.617Z,63.51
2018-03-29T05:33:56.933Z,63.26
2018-03-29T05:36:28.896Z,62.96
2018-03-29T05:39:00.466Z,63.27
2018-03-29T05:41:36.530Z,63.05
2018-03-29T05:44:08.803Z,62.61
2018-03-29T05:46:40.246Z,62.97
2018-03-29T05:49:11.685Z,63.37
2018-03-29T05:51:42.737Z,63.45
2018-03-29T05:54:15.435Z,63.25
2018-03-29T05:56:48.752Z,63.25
2018-03-29T05:59:21.187Z,63.01
2018-03-29T06:01:53.872Z,63.84
2018-03-29T06:04:26.184Z,63.57
2018-03-29T06:06:57.547Z,63.93
2018-03-29T06:09:29.200Z,63.46
2018-03-29T06:12:01.521Z,64.42
2018-03-29T06:14:36.775Z,63.91
2018-03-29T06:17:11.743Z,64.79
2018-03-29T06:19:55.136Z,65.58
2018-03-29T06:22:29.235Z,65.57
2018-03-29T06:25:01.069Z,65.19
2018-03-29T06:27:32.683Z,64.75
2018-03-29T06:30:06.092Z,64.98
2018-03-29T06:32:38.264Z,65.62
2018-03-29T06:35:08.770Z,65.78
2018-03-29T06:37:39.448Z,65.31
2018-03-29T06:40:12.460Z,65.70
2018-03-29T06:42:43.827Z,65.65
2018-03-29T06:45:18.143Z,65.98
2018-03-29T06:47:55.245Z,66.70
2018-03-29T06:50:26.761Z,66.16
2018-03-29T06:53:00.239Z,65.85
2018-03-29T06:55:32.720Z,66.07
2018-03-29T06:58:05.261Z,66.17
2018-03-29T07:00:37.339Z,65.82
2018-03-29T07:03:09.025Z,65.53
2018-03-29T07:05:45.708Z,65.93
2018-03-29T07:08:18.807Z,65.94
2018-03-29T07:10:52.776Z,65.78
2018-03-29T07:13:31.634Z,65.77
2018-03-29T07:16:03.878Z,65.98
2018-03-29T07:18:35.599Z,65.77
2018-03-29T07:21:07.639Z,65.82
2018-03-29T07:23:38.905Z,65.77
2018-03-29T07:26:10.041Z,66.01
2018-03-29T07:28:41.730Z,65.38
2018-03-29T07:31:13.603Z,65.87
2018-03-29T07:33:45.268Z,65.60
2018-03-29T07:36:22.738Z,65.53
2018-03-29T07:38:54.813Z,65.03
2018-03-29T07:41:31.891Z,65.06
2018-03-29T07:44:06.723Z,64.63
2018-03-29T07:47:20.772Z,64.16
2018-03-29T07:49:52.934Z,64.78
2018-03-29T07:52:25.342Z,64.35
2018-03-29T07:54:57.381Z,64.36
2018-03-29T07:57:28.946Z,64.46
2018-03-29T08:00:03.897Z,63.96
2018-03-29T08:02:35.784Z,63.99
2018-03-29T08:05:07.145Z,64.00
2018-03-29T08:07:41.126Z,63.70
2018-03-29T08:10:12.085Z,63.68
2018-03-29T08:12:43.667Z,63.93
2018-03-29T08:15:20.120Z,63.59
2018-03-29T08:17:53.055Z,63.44
2018-03-29T08:20:25.977Z,63.41
2018-03-29T08:22:57.785Z,63.38
2018-03-29T08:25:30.408Z,63.64
2018-03-29T08:28:03.416Z,63.56
2018-03-29T08:30:35.278Z,63.50
2018-03-29T08:33:09.963Z,63.56
2018-03-29T08:35:43.168Z,63.46
2018-03-29T08:38:14.335Z,63.76
2018-03-29T08:40:49.659Z,63.26
2018-03-29T08:43:21.125Z,63.01
2018-03-29T08:45:54.986Z,62.88
2018-03-29T08:48:26.929Z,62.08
2018-03-29T08:50:59.031Z,63.44
2018-03-29T08:53:30.996Z,63.25
2018-03-29T08:56:01.969Z,63.35
2018-03-29T08:58:33.095Z,62.85
2018-03-29T09:01:05.482Z,62.23
2018-03-29T09:03:38.087Z,62.22
2018-03-29T09:06:10.561Z,62.29
2018-03-29T09:08:42.322Z,62.28
2018-03-29T09:11:13.936Z,62.55
2018-03-29T09:13:45.144Z,62.20
2018-03-29T09:16:18.314Z,61.61
2018-03-29T09:18:51.356Z,61.09
2018-03-29T09:21:23.711Z,60.92
2018-03-29T09:23:57.622Z,59.85
2018-03-29T09:26:29.561Z,59.61
2018-03-29T09:29:10.711Z,60.04
2018-03-29T09:31:44.040Z,60.29
2018-03-29T09:34:17.402Z,60.66
2018-03-29T09:36:52.791Z,59.84
2018-03-29T09:39:25.766Z,60.06
2018-03-29T09:42:00.652Z,58.87
2018-03-29T09:44:34.012Z,57.44
2018-03-29T09:47:06.438Z,56.57
2018-03-29T09:49:39.095Z,56.00
2018-03-29T09:52:12.049Z,54.77
2018-03-29T09:54:43.212Z,54.88
2018-03-29T09:57:14.163Z,54.44
2018-03-29T09:59:45.782Z,54.91
2018-03-29T10:02:21.232Z,55.27
2018-03-29T10:04:56.613Z,54.58
2018-03-29T10:07:34.969Z,54.14
2018-03-29T10:10:06.389Z,53.48
2018-03-29T10:12:41.468Z,49.82
2018-03-29T10:15:15.017Z,50.79
2018-03-29T10:17:48.229Z,48.20
2018-03-29T10:20:24.848Z,48.62
2018-03-29T10:22:56.433Z,48.80
2018-03-29T10:25:28.489Z,49.40
2018-03-29T10:28:03.330Z,49.96
2018-03-29T10:30:35.207Z,49.69
2018-03-29T10:35:47.482Z,51.17
2018-03-29T10:38:19.890Z,53.91
2018-03-29T10:40:54.673Z,56.11
2018-03-29T10:43:34.711Z,55.81
2018-03-29T10:46:07.866Z,56.12
2018-03-29T10:48:39.710Z,56.15
2018-03-29T10:51:11.013Z,56.94
2018-03-29T10:53:44.009Z,57.13
2018-03-29T10:56:25.994Z,57.41
2018-03-29T10:59:12.386Z,57.34
2018-03-29T11:01:44.785Z,57.73
2018-03-29T11:04:38.652Z,56.60
2018-03-29T11:07:15.832Z,54.96
2018-03-29T11:09:47.248Z,53.77
2018-03-29T11:12:31.031Z,51.75
2018-03-29T11:15:41.253Z,49.56
2018-03-29T11:18:20.569Z,50.30
2018-03-29T11:20:52.864Z,50.71
2018-03-29T11:23:25.293Z,51.86
2018-03-29T11:25:58.044Z,52.85
2018-03-29T11:28:29.719Z,53.40
2018-03-29T11:31:02.672Z,52.73
2018-03-29T11:33:35.150Z,51.15
2018-03-29T11:36:08.056Z,51.47
2018-03-29T11:38:39.276Z,52.68
2018-03-29T11:41:10.310Z,51.78
2018-03-29T11:43:49.530Z,50.08
2018-03-29T11:46:22.363Z,47.24
2018-03-29T11:48:55.747Z,47.21
2018-03-29T11:51:29.254Z,45.97
2018-03-29T11:56:48.195Z,46.07
2018-03-29T11:59:25.789Z,45.62
2018-03-29T12:02:27.024Z,43.92
2018-03-29T12:05:05.657Z,45.06
2018-03-29T12:10:20.238Z,50.13
2018-03-29T12:13:08.755Z,52.00
2018-03-29T12:15:43.863Z,54.61
2018-03-29T12:18:18.824Z,53.79
2018-03-29T12:20:52.393Z,54.45
2018-03-29T12:23:29.707Z,54.75
2018-03-29T12:26:00.660Z,55.88
2018-03-29T12:28:32.205Z,59.12
2018-03-29T12:31:06.147Z,58.53
2018-03-29T12:33:40.863Z,60.12
2018-03-29T12:36:14.729Z,61.55
2018-03-29T12:38:49.617Z,60.57
2018-03-29T12:41:26.858Z,60.12
2018-03-29T12:43:58.611Z,57.28
2018-03-29T12:46:35.720Z,55.33
2018-03-29T12:49:13.629Z,54.96
2018-03-29T12:51:57.946Z,55.99
2018-03-29T12:54:42.437Z,56.29
2018-03-29T12:58:18.318Z,55.20
2018-03-29T13:04:09.453Z,49.91
2018-03-29T13:06:42.340Z,47.86
2018-03-29T13:09:15.399Z,46.67
2018-03-29T13:11:48.819Z,47.99
2018-03-29T13:14:27.089Z,47.78
2018-03-29T13:17:02.384Z,45.98
2018-03-29T13:19:42.671Z,44.88
2018-03-29T13:22:15.601Z,44.35
2018-03-29T13:24:50.689Z,45.32
2018-03-29T13:27:45.973Z,46.08
2018-03-29T13:30:25.614Z,43.65
2018-03-29T13:32:57.720Z,44.18
2018-03-29T13:35:37.487Z,42.14
2018-03-29T13:38:15.368Z,41.98
2018-03-29T13:40:50.082Z,41.57
2018-03-29T13:43:25.452Z,38.24
2018-03-29T13:45:58.045Z,37.96
2018-03-29T13:48:29.864Z,38.47
2018-03-29T13:51:01.963Z,39.37
2018-03-29T13:53:46.808Z,40.40
2018-03-29T13:56:22.944Z,39.36
2018-03-29T13:58:55.222Z,40.44
2018-03-29T14:01:29.283Z,40.75
2018-03-29T14:04:01.521Z,38.67
2018-03-29T14:06:36.772Z,38.39
2018-03-29T14:09:10.318Z,37.09
2018-03-29T14:12:34.066Z,37.63
2018-03-29T14:15:16.297Z,36.50
2018-03-29T14:17:55.836Z,36.56
2018-03-29T14:20:28.799Z,36.87
2018-03-29T14:23:07.921Z,37.79
2018-03-29T14:25:44.449Z,39.00
2018-03-29T14:31:33.386Z,43.59
2018-03-29T14:34:20.593Z,45.04
2018-03-29T14:36:53.211Z,45.46
2018-03-29T14:39:24.408Z,45.79
2018-03-29T14:41:55.990Z,44.08
2018-03-29T14:44:29.207Z,45.67
2018-03-29T14:47:00.367Z,43.28
2018-03-29T14:49:31.924Z,42.81
2018-03-29T14:52:11.673Z,43.14
2018-03-29T14:54:51.153Z,41.79
2018-03-29T14:57:22.496Z,42.77
2018-03-29T14:59:54.499Z,41.62
2018-03-29T15:02:27.104Z,41.63
2018-03-29T15:05:02.221Z,41.65
2018-03-29T15:08:12.722Z,42.25
2018-03-29T15:10:44.575Z,40.67
2018-03-29T15:13:16.815Z,40.04
2018-03-29T15:15:49.766Z,40.78
2018-03-29T15:18:22.884Z,39.53
2018-03-29T15:20:56.125Z,38.78
2018-03-29T15:23:33.254Z,39.26
2018-03-29T15:28:49.819Z,40.05
2018-03-29T15:31:24.428Z,39.49
2018-03-29T15:36:27.722Z,39.22
2018-03-29T15:39:00.821Z,38.20
2018-03-29T15:41:36.414Z,37.85
2018-03-29T15:44:16.425Z,36.08
2018-03-29T15:46:53.599Z,36.06
2018-03-29T15:49:26.279Z,35.33
2018-03-29T15:51:57.578Z,35.28
2018-03-29T15:54:32.686Z,35.93
2018-03-29T15:57:05.308Z,33.86
2018-03-29T15:59:36.280Z,34.44
2018-03-29T16:02:09.727Z,34.38
2018-03-29T16:04:44.579Z,33.69
2018-03-29T16:07:17.480Z,34.23
2018-03-29T16:09:49.805Z,33.55
2018-03-29T16:12:23.604Z,32.58
2018-03-29T16:14:55.409Z,32.87
2018-03-29T16:17:32.530Z,32.63
2018-03-29T16:20:06.080Z,33.53
2018-03-29T16:22:38.452Z,33.32
2018-03-29T16:25:22.562Z,33.50
2018-03-29T16:28:00.194Z,33.59
2018-03-29T16:30:38.366Z,33.79
2018-03-29T16:33:09.716Z,33.62
2018-03-29T16:35:41.226Z,32.97
2018-03-29T16:38:14.569Z,33.74
2018-03-29T16:40:46.906Z,33.81
2018-03-29T16:43:21.328Z,34.01
2018-03-29T16:45:55.968Z,34.23
2018-03-29T16:48:29.055Z,34.00
2018-03-29T16:51:14.011Z,34.76
2018-03-29T16:53:47.625Z,34.39
2018-03-29T16:56:22.826Z,34.54
2018-03-29T16:58:57.015Z,33.30
2018-03-29T17:02:02.485Z,33.78
2018-03-29T17:04:36.606Z,33.71
2018-03-29T17:07:16.847Z,33.91
2018-03-29T17:09:52.294Z,34.08
2018-03-29T17:12:32.059Z,34.59
2018-03-29T17:15:08.935Z,34.38
2018-03-29T17:17:46.121Z,34.69
2018-03-29T17:20:18.984Z,35.50
2018-03-29T17:22:55.548Z,34.96
2018-03-29T17:25:34.461Z,34.99
2018-03-29T17:28:07.913Z,34.44
2018-03-29T17:30:42.350Z,35.11
2018-03-29T17:33:37.196Z,34.94
2018-03-29T17:36:14.128Z,33.93
2018-03-29T17:38:49.749Z,34.45
2018-03-29T17:41:28.038Z,35.02
2018-03-29T17:44:02.109Z,35.35
2018-03-29T17:46:36.863Z,35.60
2018-03-29T17:49:09.539Z,35.46
2018-03-29T17:51:51.996Z,35.26
2018-03-29T17:54:28.815Z,35.47
2018-03-29T17:57:08.898Z,35.60
2018-03-29T17:59:56.398Z,36.07
2018-03-29T18:05:12.186Z,36.08
2018-03-29T18:07:47.721Z,36.07
2018-03-29T18:10:27.851Z,36.07
2018-03-29T18:16:14.651Z,36.69
2018-03-29T18:18:54.848Z,36.82
2018-03-29T18:21:32.139Z,37.11
2018-03-29T18:27:29.373Z,37.36
2018-03-29T18:30:17.270Z,38.13
2018-03-29T18:32:57.649Z,38.39
2018-03-29T18:35:32.347Z,38.21
2018-03-29T18:38:06.987Z,38.58
2018-03-29T18:40:42.349Z,38.56
2018-03-29T18:43:21.316Z,38.70
2018-03-29T18:45:59.720Z,38.92
2018-03-29T18:51:19.145Z,39.70
2018-03-29T18:53:51.868Z,40.30
2018-03-29T18:56:28.830Z,40.46
2018-03-29T18:59:12.026Z,41.19
2018-03-29T19:01:45.706Z,41.55
2018-03-29T19:04:20.905Z,42.03
2018-03-29T19:06:55.997Z,42.99
2018-03-29T19:09:30.562Z,42.74
2018-03-29T19:12:05.124Z,42.37
2018-03-29T19:14:37.353Z,42.37
2018-03-29T19:17:09.874Z,42.81
2018-03-29T19:19:42.579Z,43.27
2018-03-29T19:22:14.951Z,43.91
2018-03-29T19:24:50.062Z,43.78
2018-03-29T19:27:22.178Z,43.72
2018-03-29T19:29:56.017Z,43.93
2018-03-29T19:32:32.761Z,44.35
2018-03-29T19:35:10.787Z,44.62
2018-03-29T19:37:45.834Z,45.41
2018-03-29T19:40:17.788Z,45.37
2018-03-29T19:42:54.971Z,45.00
2018-03-29T19:45:28.384Z,45.43
2018-03-29T19:48:00.860Z,45.48
2018-03-29T19:50:33.682Z,46.43
2018-03-29T19:53:12.680Z,47.10
2018-03-29T19:55:44.913Z,46.88
2018-03-29T19:58:26.218Z,47.58
2018-03-29T20:00:59.280Z,47.90
2018-03-29T20:03:42.176Z,48.46
2018-03-29T20:06:19.260Z,49.14
2018-03-29T20:08:51.058Z,48.88
2018-03-29T20:11:23.044Z,49.00
2018-03-29T20:13:55.615Z,48.97
2018-03-29T20:16:28.095Z,48.96
2018-03-29T20:19:06.410Z,49.07
2018-03-29T20:21:39.250Z,49.33
2018-03-29T20:24:13.828Z,49.19
2018-03-29T20:26:51.313Z,49.48
2018-03-29T20:29:24.237Z,49.66
2018-03-29T20:31:58.012Z,49.77
2018-03-29T20:39:44.638Z,50.74
2018-03-29T20:42:17.320Z,51.25
2018-03-29T20:45:03.362Z,51.36
2018-03-29T20:47:39.278Z,51.32
2018-03-29T20:50:13.620Z,52.36
2018-03-29T20:52:50.171Z,52.78
2018-03-29T20:55:24.467Z,53.16
2018-03-29T20:57:57.484Z,53.21
2018-03-29T21:00:29.806Z,53.52
2018-03-29T21:03:04.802Z,53.62
2018-03-29T21:05:36.118Z,53.80
2018-03-29T21:08:10.411Z,54.02
2018-03-29T21:10:41.786Z,53.83
2018-03-29T21:13:13.700Z,53.76
2018-03-29T21:15:45.213Z,53.86
2018-03-29T21:18:18.143Z,54.41
2018-03-29T21:20:49.667Z,54.57
2018-03-29T21:23:21.173Z,54.44
2018-03-29T21:25:52.591Z,54.54
2018-03-29T21:28:26.540Z,54.35
2018-03-29T21:30:59.350Z,54.67
2018-03-29T21:33:31.994Z,54.57
2018-03-29T21:36:03.779Z,54.59
2018-03-29T21:38:34.536Z,54.81
2018-03-29T21:41:06.511Z,54.65
2018-03-29T21:43:37.399Z,54.87
2018-03-29T21:46:09.463Z,55.23
2018-03-29T21:48:40.510Z,54.82
2018-03-29T21:51:11.729Z,54.75
2018-03-29T21:53:43.390Z,54.89
2018-03-29T21:56:14.628Z,55.05
2018-03-29T21:58:45.607Z,55.11
2018-03-29T22:01:16.691Z,54.84
2018-03-29T22:03:47.825Z,54.82
2018-03-29T22:06:20.062Z,54.79
2018-03-29T22:08:51.845Z,55.18
2018-03-29T22:11:23.837Z,55.23
2018-03-29T22:13:55.723Z,55.02
2018-03-29T22:16:33.196Z,54.88
2018-03-29T22:19:04.574Z,54.79
2018-03-29T22:21:36.077Z,54.33
2018-03-29T22:24:07.875Z,54.54
2018-03-29T22:26:39.109Z,54.89
2018-03-29T22:29:20.963Z,54.81
2018-03-29T22:31:53.317Z,55.00
2018-03-29T22:34:24.686Z,54.66
2018-03-29T22:36:56.540Z,54.73
2018-03-29T22:39:27.538Z,54.92
2018-03-29T22:41:59.924Z,54.44
2018-03-29T22:44:30.892Z,54.84
2018-03-29T22:47:02.281Z,54.97
2018-03-29T22:49:33.853Z,54.99
2018-03-29T22:52:05.060Z,55.19
2018-03-29T22:54:36.571Z,55.53
2018-03-29T22:57:34.059Z,55.21
2018-03-29T23:00:10.756Z,55.28
2018-03-29T23:02:44.891Z,55.04
2018-03-29T23:05:16.738Z,54.95
2018-03-29T23:07:48.254Z,55.21
2018-03-29T23:10:22.051Z,55.81
2018-03-29T23:12:54.761Z,55.90
2018-03-29T23:15:32.627Z,55.82
2018-03-29T23:18:04.612Z,55.94
2018-03-29T23:20:40.882Z,55.95
2018-03-29T23:23:14.865Z,55.80
2018-03-29T23:25:49.374Z,55.45
2018-03-29T23:28:22.409Z,55.58
2018-03-29T23:31:13.126Z,55.35
2018-03-29T23:33:50.112Z,55.07
2018-03-29T23:36:25.446Z,55.50
2018-03-29T23:38:58.004Z,55.85
2018-03-29T23:41:29.677Z,55.88
2018-03-29T23:44:05.624Z,55.82
2018-03-29T23:46:38.322Z,55.78
2018-03-29T23:49:11.932Z,55.62
2018-03-29T23:51:43.923Z,55.53
2018-03-29T23:54:16.041Z,55.80
2018-03-29T23:56:47.935Z,55.80
2018-03-29T23:59:19.947Z,55.75
